sensor_id;sensor_type;location;lat;lon;timestamp;pressure;altitude;pressure_sealevel;temperature;humidity
4346;BME280;2186;49.866;7.986;2022-09-13T00:00:59;99791.91;;;15.30;100.00
4346;BME280;2186;49.866;7.986;2022-09-13T00:03:27;99795.19;;;15.20;100.00
4346;BME280;2186;49.866;7.986;2022-09-13T00:05:54;99801.25;;;15.23;100.00
4346;BME280;2186;49.866;7.986;2022-09-13T00:08:20;99796.84;;;15.22;100.00
4346;BME280;2186;49.866;7.986;2022-09-13T00:10:47;99789.91;;;15.18;100.00
4346;BME280;2186;49.866;7.986;2022-09-13T00:13:15;99782.75;;;15.19;100.00
4346;BME280;2186;49.866;7.986;2022-09-13T00:15:47;99782.75;;;15.19;100.00
4346;BME280;2186;49.866;7.986;2022-09-13T00:18:14;99784.25;;;15.24;100.00
4346;BME280;2186;49.866;7.986;2022-09-13T00:20:41;99773.75;;;15.20;100.00
4346;BME280;2186;49.866;7.986;2022-09-13T00:23:08;99777.16;;;15.23;100.00
4346;BME280;2186;49.866;7.986;2022-09-13T00:25:34;99785.28;;;15.22;100.00
4346;BME280;2186;49.866;7.986;2022-09-13T00:28:02;99780.16;;;15.01;100.00
4346;BME280;2186;49.866;7.986;2022-09-13T00:30:28;99782.81;;;15.01;100.00
4346;BME280;2186;49.866;7.986;2022-09-13T00:32:55;99774.53;;;15.06;100.00
4346;BME280;2186;49.866;7.986;2022-09-13T00:35:21;99783.22;;;14.94;100.00
4346;BME280;2186;49.866;7.986;2022-09-13T00:37:49;99780.09;;;14.70;100.00
4346;BME280;2186;49.866;7.986;2022-09-13T00:40:15;99784.28;;;14.58;100.00
4346;BME280;2186;49.866;7.986;2022-09-13T00:42:42;99768.94;;;14.62;100.00
4346;BME280;2186;49.866;7.986;2022-09-13T00:47:43;99760.06;;;14.77;100.00
4346;BME280;2186;49.866;7.986;2022-09-13T00:50:25;99765.41;;;14.77;100.00
4346;BME280;2186;49.866;7.986;2022-09-13T00:52:57;99768.81;;;14.80;100.00
4346;BME280;2186;49.866;7.986;2022-09-13T00:55:34;99775.03;;;14.81;100.00
4346;BME280;2186;49.866;7.986;2022-09-13T00:58:06;99781.00;;;14.86;100.00
4346;BME280;2186;49.866;7.986;2022-09-13T01:15:06;99787.81;;;14.41;100.00
4346;BME280;2186;49.866;7.986;2022-09-13T01:17:33;99785.53;;;14.34;100.00
4346;BME280;2186;49.866;7.986;2022-09-13T01:20:02;99797.53;;;14.44;100.00
4346;BME280;2186;49.866;7.986;2022-09-13T01:31:30;99752.06;;;14.27;100.00
4346;BME280;2186;49.866;7.986;2022-09-13T01:43:01;99801.66;;;14.67;100.00
4346;BME280;2186;49.866;7.986;2022-09-13T01:48:40;99796.31;;;14.49;100.00
4346;BME280;2186;49.866;7.986;2022-09-13T01:51:35;99793.47;;;14.52;100.00
4346;BME280;2186;49.866;7.986;2022-09-13T01:54:16;99790.63;;;14.38;100.00
4346;BME280;2186;49.866;7.986;2022-09-13T01:59:19;99783.13;;;14.12;100.00
4346;BME280;2186;49.866;7.986;2022-09-13T02:02:02;99780.97;;;14.18;100.00
4346;BME280;2186;49.866;7.986;2022-09-13T02:04:40;99783.66;;;14.18;100.00
4346;BME280;2186;49.866;7.986;2022-09-13T02:07:12;99796.00;;;14.21;100.00
4346;BME280;2186;49.866;7.986;2022-09-13T02:09:43;99802.13;;;14.23;100.00
4346;BME280;2186;49.866;7.986;2022-09-13T02:12:18;99797.75;;;14.39;100.00
4346;BME280;2186;49.866;7.986;2022-09-13T02:14:51;99797.88;;;14.36;100.00
4346;BME280;2186;49.866;7.986;2022-09-13T02:17:23;99790.19;;;14.30;100.00
4346;BME280;2186;49.866;7.986;2022-09-13T02:19:57;99789.94;;;14.35;100.00
4346;BME280;2186;49.866;7.986;2022-09-13T02:22:28;99792.94;;;14.29;100.00
4346;BME280;2186;49.866;7.986;2022-09-13T02:25:11;99786.97;;;14.41;100.00
4346;BME280;2186;49.866;7.986;2022-09-13T02:27:40;99785.94;;;14.43;100.00
4346;BME280;2186;49.866;7.986;2022-09-13T02:30:10;99794.84;;;14.44;100.00
4346;BME280;2186;49.866;7.986;2022-09-13T02:32:45;99795.47;;;14.49;100.00
4346;BME280;2186;49.866;7.986;2022-09-13T02:35:25;99810.22;;;14.73;100.00
4346;BME280;2186;49.866;7.986;2022-09-13T02:38:19;99805.22;;;14.67;100.00
4346;BME280;2186;49.866;7.986;2022-09-13T02:40:54;99796.53;;;14.62;100.00
4346;BME280;2186;49.866;7.986;2022-09-13T02:43:31;99787.91;;;14.57;100.00
4346;BME280;2186;49.866;7.986;2022-09-13T02:48:45;99781.22;;;14.48;100.00
4346;BME280;2186;49.866;7.986;2022-09-13T02:54:32;99790.16;;;14.65;100.00
4346;BME280;2186;49.866;7.986;2022-09-13T02:57:07;99787.25;;;14.69;100.00
4346;BME280;2186;49.866;7.986;2022-09-13T02:59:34;99777.50;;;14.68;100.00
4346;BME280;2186;49.866;7.986;2022-09-13T03:02:08;99762.84;;;14.75;100.00
4346;BME280;2186;49.866;7.986;2022-09-13T03:04:35;99763.69;;;14.76;100.00
4346;BME280;2186;49.866;7.986;2022-09-13T03:07:02;99780.31;;;14.82;100.00
4346;BME280;2186;49.866;7.986;2022-09-13T03:09:33;99789.63;;;15.07;100.00
4346;BME280;2186;49.866;7.986;2022-09-13T03:15:03;99772.69;;;14.91;100.00
4346;BME280;2186;49.866;7.986;2022-09-13T03:17:45;99757.97;;;14.99;100.00
4346;BME280;2186;49.866;7.986;2022-09-13T03:23:07;99750.44;;;14.90;100.00
4346;BME280;2186;49.866;7.986;2022-09-13T03:25:42;99750.09;;;14.80;100.00
4346;BME280;2186;49.866;7.986;2022-09-13T03:31:23;99746.38;;;14.83;100.00
4346;BME280;2186;49.866;7.986;2022-09-13T03:34:04;99739.38;;;14.80;100.00
4346;BME280;2186;49.866;7.986;2022-09-13T03:36:36;99736.72;;;14.80;100.00
4346;BME280;2186;49.866;7.986;2022-09-13T03:41:43;99736.44;;;14.85;100.00
4346;BME280;2186;49.866;7.986;2022-09-13T03:44:15;99723.16;;;14.84;100.00
4346;BME280;2186;49.866;7.986;2022-09-13T03:46:51;99724.09;;;14.82;100.00
4346;BME280;2186;49.866;7.986;2022-09-13T03:49:19;99726.59;;;14.86;100.00
4346;BME280;2186;49.866;7.986;2022-09-13T03:51:49;99720.31;;;14.87;100.00
4346;BME280;2186;49.866;7.986;2022-09-13T03:54:21;99727.38;;;14.88;100.00
4346;BME280;2186;49.866;7.986;2022-09-13T03:57:07;99723.44;;;14.95;100.00
4346;BME280;2186;49.866;7.986;2022-09-13T03:59:36;99718.00;;;14.96;100.00
4346;BME280;2186;49.866;7.986;2022-09-13T04:02:05;99719.94;;;14.93;100.00
4346;BME280;2186;49.866;7.986;2022-09-13T04:04:41;99718.22;;;14.92;100.00
4346;BME280;2186;49.866;7.986;2022-09-13T04:07:10;99714.50;;;14.78;100.00
4346;BME280;2186;49.866;7.986;2022-09-13T04:09:37;99712.38;;;14.85;100.00
4346;BME280;2186;49.866;7.986;2022-09-13T04:12:03;99722.38;;;14.97;100.00
4346;BME280;2186;49.866;7.986;2022-09-13T04:14:30;99727.13;;;14.92;100.00
4346;BME280;2186;49.866;7.986;2022-09-13T04:16:56;99730.31;;;14.83;100.00
4346;BME280;2186;49.866;7.986;2022-09-13T04:19:24;99732.81;;;14.86;100.00
4346;BME280;2186;49.866;7.986;2022-09-13T04:21:52;99731.00;;;15.02;100.00
4346;BME280;2186;49.866;7.986;2022-09-13T04:24:19;99727.06;;;15.09;100.00
4346;BME280;2186;49.866;7.986;2022-09-13T04:26:49;99731.19;;;14.99;100.00
4346;BME280;2186;49.866;7.986;2022-09-13T04:29:16;99727.91;;;14.94;100.00
4346;BME280;2186;49.866;7.986;2022-09-13T04:31:44;99726.63;;;15.01;100.00
4346;BME280;2186;49.866;7.986;2022-09-13T04:34:11;99726.53;;;14.87;100.00
4346;BME280;2186;49.866;7.986;2022-09-13T04:36:38;99722.03;;;14.88;100.00
4346;BME280;2186;49.866;7.986;2022-09-13T04:39:05;99726.34;;;15.53;100.00
4346;BME280;2186;49.866;7.986;2022-09-13T04:41:32;99725.56;;;15.04;100.00
4346;BME280;2186;49.866;7.986;2022-09-13T04:44:00;99733.97;;;14.98;100.00
4346;BME280;2186;49.866;7.986;2022-09-13T04:46:27;99737.03;;;14.90;100.00
4346;BME280;2186;49.866;7.986;2022-09-13T04:48:54;99735.50;;;14.86;100.00
4346;BME280;2186;49.866;7.986;2022-09-13T04:51:21;99729.94;;;14.73;100.00
4346;BME280;2186;49.866;7.986;2022-09-13T04:53:51;99726.00;;;14.47;100.00
4346;BME280;2186;49.866;7.986;2022-09-13T04:56:20;99729.84;;;14.59;100.00
4346;BME280;2186;49.866;7.986;2022-09-13T04:58:52;99741.22;;;14.63;100.00
4346;BME280;2186;49.866;7.986;2022-09-13T05:01:19;99747.94;;;14.87;100.00
4346;BME280;2186;49.866;7.986;2022-09-13T05:03:52;99749.38;;;14.93;100.00
4346;BME280;2186;49.866;7.986;2022-09-13T05:06:19;99750.09;;;14.96;100.00
4346;BME280;2186;49.866;7.986;2022-09-13T05:08:51;99752.78;;;14.96;100.00
4346;BME280;2186;49.866;7.986;2022-09-13T05:11:22;99749.34;;;14.94;100.00
4346;BME280;2186;49.866;7.986;2022-09-13T05:13:53;99760.47;;;15.02;100.00
4346;BME280;2186;49.866;7.986;2022-09-13T05:16:22;99766.94;;;15.30;100.00
4346;BME280;2186;49.866;7.986;2022-09-13T05:18:49;99777.75;;;15.28;100.00
4346;BME280;2186;49.866;7.986;2022-09-13T05:21:16;99778.53;;;15.30;100.00
4346;BME280;2186;49.866;7.986;2022-09-13T05:23:44;99773.94;;;15.32;100.00
4346;BME280;2186;49.866;7.986;2022-09-13T05:26:10;99775.34;;;15.39;100.00
4346;BME280;2186;49.866;7.986;2022-09-13T05:28:36;99779.84;;;15.39;100.00
4346;BME280;2186;49.866;7.986;2022-09-13T05:31:06;99773.00;;;15.33;100.00
4346;BME280;2186;49.866;7.986;2022-09-13T05:33:35;99776.47;;;15.35;100.00
4346;BME280;2186;49.866;7.986;2022-09-13T05:36:03;99777.75;;;15.28;100.00
4346;BME280;2186;49.866;7.986;2022-09-13T05:38:29;99765.75;;;15.35;100.00
4346;BME280;2186;49.866;7.986;2022-09-13T05:40:58;99767.91;;;15.29;100.00
4346;BME280;2186;49.866;7.986;2022-09-13T05:43:27;99772.66;;;15.24;100.00
4346;BME280;2186;49.866;7.986;2022-09-13T05:46:23;99758.81;;;15.16;100.00
4346;BME280;2186;49.866;7.986;2022-09-13T05:48:49;99764.97;;;15.18;100.00
4346;BME280;2186;49.866;7.986;2022-09-13T05:51:20;99756.31;;;15.28;100.00
4346;BME280;2186;49.866;7.986;2022-09-13T05:53:49;99757.78;;;15.34;100.00
4346;BME280;2186;49.866;7.986;2022-09-13T05:56:18;99773.50;;;15.56;100.00
4346;BME280;2186;49.866;7.986;2022-09-13T05:58:46;99773.78;;;15.51;100.00
4346;BME280;2186;49.866;7.986;2022-09-13T06:01:15;99766.84;;;15.47;100.00
4346;BME280;2186;49.866;7.986;2022-09-13T06:03:45;99768.56;;;15.48;100.00
4346;BME280;2186;49.866;7.986;2022-09-13T06:06:11;99766.69;;;15.50;100.00
4346;BME280;2186;49.866;7.986;2022-09-13T06:08:38;99773.16;;;15.46;100.00
4346;BME280;2186;49.866;7.986;2022-09-13T06:11:07;99760.53;;;15.48;100.00
4346;BME280;2186;49.866;7.986;2022-09-13T06:13:34;99757.19;;;15.60;100.00
4346;BME280;2186;49.866;7.986;2022-09-13T06:16:03;99755.13;;;15.65;100.00
4346;BME280;2186;49.866;7.986;2022-09-13T06:18:30;99763.28;;;15.94;100.00
4346;BME280;2186;49.866;7.986;2022-09-13T06:21:02;99773.28;;;16.06;100.00
4346;BME280;2186;49.866;7.986;2022-09-13T06:23:29;99780.84;;;16.14;100.00
4346;BME280;2186;49.866;7.986;2022-09-13T06:26:07;99786.16;;;16.29;100.00
4346;BME280;2186;49.866;7.986;2022-09-13T06:28:35;99782.53;;;16.89;100.00
4346;BME280;2186;49.866;7.986;2022-09-13T06:31:22;99779.41;;;16.67;100.00
4346;BME280;2186;49.866;7.986;2022-09-13T06:33:55;99777.97;;;16.61;100.00
4346;BME280;2186;49.866;7.986;2022-09-13T06:36:23;99776.78;;;16.37;100.00
4346;BME280;2186;49.866;7.986;2022-09-13T06:38:49;99786.16;;;16.29;100.00
4346;BME280;2186;49.866;7.986;2022-09-13T06:41:18;99792.47;;;16.58;100.00
4346;BME280;2186;49.866;7.986;2022-09-13T06:43:50;99789.53;;;16.33;100.00
4346;BME280;2186;49.866;7.986;2022-09-13T06:46:17;99789.38;;;16.50;100.00
4346;BME280;2186;49.866;7.986;2022-09-13T06:48:50;99793.31;;;16.45;100.00
4346;BME280;2186;49.866;7.986;2022-09-13T06:51:20;99790.81;;;16.56;100.00
4346;BME280;2186;49.866;7.986;2022-09-13T06:53:48;99801.06;;;16.49;100.00
4346;BME280;2186;49.866;7.986;2022-09-13T06:56:18;99807.66;;;16.58;100.00
4346;BME280;2186;49.866;7.986;2022-09-13T06:58:46;99801.78;;;16.96;100.00
4346;BME280;2186;49.866;7.986;2022-09-13T07:01:19;99801.31;;;16.75;100.00
4346;BME280;2186;49.866;7.986;2022-09-13T07:03:48;99810.75;;;16.52;100.00
4346;BME280;2186;49.866;7.986;2022-09-13T07:06:20;99812.97;;;16.59;100.00
4346;BME280;2186;49.866;7.986;2022-09-13T07:08:49;99800.56;;;16.57;100.00
4346;BME280;2186;49.866;7.986;2022-09-13T07:11:18;99804.66;;;16.78;100.00
4346;BME280;2186;49.866;7.986;2022-09-13T07:13:55;99793.78;;;16.66;100.00
4346;BME280;2186;49.866;7.986;2022-09-13T07:16:24;99783.06;;;16.66;100.00
4346;BME280;2186;49.866;7.986;2022-09-13T07:18:55;99778.28;;;16.71;100.00
4346;BME280;2186;49.866;7.986;2022-09-13T07:21:22;99763.50;;;16.64;100.00
4346;BME280;2186;49.866;7.986;2022-09-13T07:23:50;99754.22;;;16.69;100.00
4346;BME280;2186;49.866;7.986;2022-09-13T07:26:17;99748.75;;;16.71;100.00
4346;BME280;2186;49.866;7.986;2022-09-13T07:28:46;99745.28;;;16.54;100.00
4346;BME280;2186;49.866;7.986;2022-09-13T07:31:24;99732.50;;;16.29;100.00
4346;BME280;2186;49.866;7.986;2022-09-13T07:33:56;99740.97;;;16.38;100.00
4346;BME280;2186;49.866;7.986;2022-09-13T07:36:23;99741.94;;;16.51;100.00
4346;BME280;2186;49.866;7.986;2022-09-13T07:38:50;99735.31;;;16.56;100.00
4346;BME280;2186;49.866;7.986;2022-09-13T07:41:19;99744.34;;;16.84;100.00
4346;BME280;2186;49.866;7.986;2022-09-13T07:43:46;99742.72;;;16.96;100.00
4346;BME280;2186;49.866;7.986;2022-09-13T07:46:15;99750.53;;;17.41;100.00
4346;BME280;2186;49.866;7.986;2022-09-13T07:48:43;99760.41;;;17.27;100.00
4346;BME280;2186;49.866;7.986;2022-09-13T07:51:12;99764.66;;;17.31;100.00
4346;BME280;2186;49.866;7.986;2022-09-13T07:53:41;99766.53;;;17.43;100.00
4346;BME280;2186;49.866;7.986;2022-09-13T07:56:13;99761.97;;;17.58;100.00
4346;BME280;2186;49.866;7.986;2022-09-13T07:58:41;99761.34;;;17.67;100.00
4346;BME280;2186;49.866;7.986;2022-09-13T08:01:25;99765.75;;;17.68;100.00
4346;BME280;2186;49.866;7.986;2022-09-13T08:04:00;99762.25;;;17.53;100.00
4346;BME280;2186;49.866;7.986;2022-09-13T08:06:29;99760.63;;;17.51;100.00
4346;BME280;2186;49.866;7.986;2022-09-13T08:08:56;99758.25;;;17.46;100.00
4346;BME280;2186;49.866;7.986;2022-09-13T08:11:26;99758.31;;;17.73;100.00
4346;BME280;2186;49.866;7.986;2022-09-13T08:13:53;99762.31;;;17.66;100.00
4346;BME280;2186;49.866;7.986;2022-09-13T08:16:22;99774.19;;;18.03;100.00
4346;BME280;2186;49.866;7.986;2022-09-13T08:18:50;99775.75;;;18.20;100.00
4346;BME280;2186;49.866;7.986;2022-09-13T08:21:17;99767.28;;;17.86;100.00
4346;BME280;2186;49.866;7.986;2022-09-13T08:23:44;99766.06;;;17.77;100.00
4346;BME280;2186;49.866;7.986;2022-09-13T08:26:12;99784.00;;;17.77;100.00
4346;BME280;2186;49.866;7.986;2022-09-13T08:28:40;99794.59;;;17.93;100.00
4346;BME280;2186;49.866;7.986;2022-09-13T08:31:13;99802.66;;;17.93;100.00
4346;BME280;2186;49.866;7.986;2022-09-13T08:33:46;99806.94;;;18.22;100.00
4346;BME280;2186;49.866;7.986;2022-09-13T08:36:15;99805.75;;;18.14;100.00
4346;BME280;2186;49.866;7.986;2022-09-13T08:38:46;99804.78;;;18.15;100.00
4346;BME280;2186;49.866;7.986;2022-09-13T08:46:48;99814.63;;;18.81;100.00
4346;BME280;2186;49.866;7.986;2022-09-13T08:49:29;99803.13;;;18.39;100.00
4346;BME280;2186;49.866;7.986;2022-09-13T08:51:59;99796.19;;;18.10;100.00
4346;BME280;2186;49.866;7.986;2022-09-13T08:54:28;99797.25;;;18.20;100.00
4346;BME280;2186;49.866;7.986;2022-09-13T08:57:02;99787.91;;;18.13;100.00
4346;BME280;2186;49.866;7.986;2022-09-13T09:00:02;99778.66;;;18.17;100.00
4346;BME280;2186;49.866;7.986;2022-09-13T09:05:18;99763.34;;;18.04;100.00
4346;BME280;2186;49.866;7.986;2022-09-13T09:08:13;99767.13;;;18.15;100.00
4346;BME280;2186;49.866;7.986;2022-09-13T09:10:48;99759.84;;;18.42;100.00
4346;BME280;2186;49.866;7.986;2022-09-13T09:13:30;99762.34;;;18.58;100.00
4346;BME280;2186;49.866;7.986;2022-09-13T09:16:05;99754.59;;;18.91;100.00
4346;BME280;2186;49.866;7.986;2022-09-13T09:18:37;99750.22;;;18.78;100.00
4346;BME280;2186;49.866;7.986;2022-09-13T09:21:11;99761.19;;;19.37;100.00
4346;BME280;2186;49.866;7.986;2022-09-13T09:23:51;99764.97;;;19.34;100.00
4346;BME280;2186;49.866;7.986;2022-09-13T09:26:23;99773.22;;;19.44;100.00
4346;BME280;2186;49.866;7.986;2022-09-13T09:28:57;99776.94;;;19.17;100.00
4346;BME280;2186;49.866;7.986;2022-09-13T09:31:42;99784.19;;;19.17;100.00
4346;BME280;2186;49.866;7.986;2022-09-13T09:37:23;99786.97;;;19.28;100.00
4346;BME280;2186;49.866;7.986;2022-09-13T09:39:57;99790.97;;;19.22;100.00
4346;BME280;2186;49.866;7.986;2022-09-13T09:42:28;99786.03;;;19.53;100.00
4346;BME280;2186;49.866;7.986;2022-09-13T09:44:59;99784.88;;;20.05;98.46
4346;BME280;2186;49.866;7.986;2022-09-13T09:47:28;99783.72;;;19.96;97.50
4346;BME280;2186;49.866;7.986;2022-09-13T09:50:09;99795.13;;;20.24;95.50
4346;BME280;2186;49.866;7.986;2022-09-13T09:52:51;99791.47;;;20.01;96.85
4346;BME280;2186;49.866;7.986;2022-09-13T09:55:31;99788.06;;;20.10;95.31
4346;BME280;2186;49.866;7.986;2022-09-13T09:58:05;99786.16;;;20.23;93.59
4346;BME280;2186;49.866;7.986;2022-09-13T10:00:34;99777.44;;;20.20;92.95
4346;BME280;2186;49.866;7.986;2022-09-13T10:03:07;99769.22;;;20.45;91.37
4346;BME280;2186;49.866;7.986;2022-09-13T10:05:42;99777.59;;;20.29;92.42
4346;BME280;2186;49.866;7.986;2022-09-13T10:08:29;99787.03;;;20.59;91.69
4346;BME280;2186;49.866;7.986;2022-09-13T10:10:57;99784.06;;;20.16;89.60
4346;BME280;2186;49.866;7.986;2022-09-13T10:13:28;99776.13;;;20.36;93.39
4346;BME280;2186;49.866;7.986;2022-09-13T10:16:02;99771.16;;;20.54;93.13
4346;BME280;2186;49.866;7.986;2022-09-13T10:18:31;99778.59;;;20.39;95.00
4346;BME280;2186;49.866;7.986;2022-09-13T10:23:45;99796.47;;;20.18;97.54
4346;BME280;2186;49.866;7.986;2022-09-13T10:26:15;99807.06;;;20.32;100.00
4346;BME280;2186;49.866;7.986;2022-09-13T10:29:06;99792.59;;;20.09;99.68
4346;BME280;2186;49.866;7.986;2022-09-13T10:31:36;99795.84;;;19.91;100.00
4346;BME280;2186;49.866;7.986;2022-09-13T10:34:13;99797.22;;;19.96;100.00
4346;BME280;2186;49.866;7.986;2022-09-13T10:42:21;99788.06;;;20.10;100.00
4346;BME280;2186;49.866;7.986;2022-09-13T10:44:54;99772.75;;;20.10;100.00
4346;BME280;2186;49.866;7.986;2022-09-13T10:47:25;99764.47;;;20.01;100.00
4346;BME280;2186;49.866;7.986;2022-09-13T10:49:55;99757.16;;;20.03;100.00
4346;BME280;2186;49.866;7.986;2022-09-13T10:52:31;99756.50;;;19.99;100.00
4346;BME280;2186;49.866;7.986;2022-09-13T11:37:34;99714.00;;;20.25;99.72
4346;BME280;2186;49.866;7.986;2022-09-13T11:39:31;99711.06;;;20.28;100.00
4346;BME280;2186;49.866;7.986;2022-09-13T11:50:36;99711.41;;;21.04;100.00
4346;BME280;2186;49.866;7.986;2022-09-13T11:56:01;99717.25;;;21.53;97.51
4346;BME280;2186;49.866;7.986;2022-09-13T12:01:27;99696.16;;;21.68;94.51
4346;BME280;2186;49.866;7.986;2022-09-13T12:04:05;99691.34;;;21.72;96.60
4346;BME280;2186;49.866;7.986;2022-09-13T12:06:44;99698.81;;;21.79;95.25
4346;BME280;2186;49.866;7.986;2022-09-13T12:09:28;99698.16;;;21.66;96.03
4346;BME280;2186;49.866;7.986;2022-09-13T12:12:22;99693.78;;;22.28;94.08
4346;BME280;2186;49.866;7.986;2022-09-13T12:14:58;99692.75;;;21.87;93.43
4346;BME280;2186;49.866;7.986;2022-09-13T12:17:29;99702.03;;;22.05;93.67
4346;BME280;2186;49.866;7.986;2022-09-13T12:20:01;99696.69;;;22.15;95.70
4346;BME280;2186;49.866;7.986;2022-09-13T12:22:32;99698.09;;;22.09;94.22
4346;BME280;2186;49.866;7.986;2022-09-13T12:25:09;99696.97;;;22.12;93.42
4346;BME280;2186;49.866;7.986;2022-09-13T12:27:49;99687.59;;;22.37;92.27
4346;BME280;2186;49.866;7.986;2022-09-13T12:30:19;99682.75;;;22.40;92.53
4346;BME280;2186;49.866;7.986;2022-09-13T12:32:47;99677.53;;;22.28;93.15
4346;BME280;2186;49.866;7.986;2022-09-13T12:35:28;99681.59;;;22.64;92.02
4346;BME280;2186;49.866;7.986;2022-09-13T12:38:27;99684.25;;;22.85;90.92
4346;BME280;2186;49.866;7.986;2022-09-13T12:44:04;99687.88;;;22.95;89.45
4346;BME280;2186;49.866;7.986;2022-09-13T12:52:30;99684.44;;;22.62;90.50
4346;BME280;2186;49.866;7.986;2022-09-13T12:55:25;99685.03;;;22.66;91.11
4346;BME280;2186;49.866;7.986;2022-09-13T13:01:19;99685.97;;;22.55;91.05
4346;BME280;2186;49.866;7.986;2022-09-13T13:06:39;99665.28;;;22.54;95.15
4346;BME280;2186;49.866;7.986;2022-09-13T13:12:02;99663.56;;;22.53;92.39
4346;BME280;2186;49.866;7.986;2022-09-13T13:25:54;99647.13;;;22.75;89.52
4346;BME280;2186;49.866;7.986;2022-09-13T13:41:58;99621.59;;;22.78;93.51
4346;BME280;2186;49.866;7.986;2022-09-13T13:46:54;99620.03;;;22.75;93.36
4346;BME280;2186;49.866;7.986;2022-09-13T13:49:42;99616.97;;;22.90;93.80
4346;BME280;2186;49.866;7.986;2022-09-13T13:57:26;99621.97;;;23.14;92.92
4346;BME280;2186;49.866;7.986;2022-09-13T14:02:48;99612.72;;;23.16;91.55
4346;BME280;2186;49.866;7.986;2022-09-13T14:05:32;99614.63;;;23.64;90.92
4346;BME280;2186;49.866;7.986;2022-09-13T14:16:40;99595.19;;;23.20;92.07
4346;BME280;2186;49.866;7.986;2022-09-13T14:19:31;99590.91;;;23.47;92.19
4346;BME280;2186;49.866;7.986;2022-09-13T14:22:22;99585.03;;;23.51;91.31
4346;BME280;2186;49.866;7.986;2022-09-13T14:24:52;99577.91;;;23.21;92.35
4346;BME280;2186;49.866;7.986;2022-09-13T14:27:30;99584.16;;;23.12;93.65
4346;BME280;2186;49.866;7.986;2022-09-13T14:30:01;99574.03;;;23.14;93.26
4346;BME280;2186;49.866;7.986;2022-09-13T14:32:37;99576.59;;;23.54;91.97
4346;BME280;2186;49.866;7.986;2022-09-13T14:35:24;99563.38;;;23.61;91.73
4346;BME280;2186;49.866;7.986;2022-09-13T14:37:52;99572.03;;;23.55;91.42
4346;BME280;2186;49.866;7.986;2022-09-13T14:40:24;99562.75;;;23.86;90.72
4346;BME280;2186;49.866;7.986;2022-09-13T14:42:54;99563.47;;;23.50;91.74
4346;BME280;2186;49.866;7.986;2022-09-13T14:45:30;99566.63;;;23.45;92.20
4346;BME280;2186;49.866;7.986;2022-09-13T14:48:03;99554.19;;;23.43;92.97
4346;BME280;2186;49.866;7.986;2022-09-13T14:50:39;99556.94;;;23.33;93.30
4346;BME280;2186;49.866;7.986;2022-09-13T14:53:13;99555.47;;;23.10;94.08
4346;BME280;2186;49.866;7.986;2022-09-13T14:55:44;99550.22;;;23.08;93.92
4346;BME280;2186;49.866;7.986;2022-09-13T14:58:17;99561.19;;;22.97;94.40
4346;BME280;2186;49.866;7.986;2022-09-13T15:00:54;99557.22;;;23.20;94.21
4346;BME280;2186;49.866;7.986;2022-09-13T15:03:24;99552.78;;;23.10;94.88
4346;BME280;2186;49.866;7.986;2022-09-13T15:05:53;99557.47;;;22.98;95.04
4346;BME280;2186;49.866;7.986;2022-09-13T15:11:00;99538.38;;;23.19;94.16
4346;BME280;2186;49.866;7.986;2022-09-13T15:13:27;99537.22;;;23.21;92.39
4346;BME280;2186;49.866;7.986;2022-09-13T15:15:53;99534.22;;;23.15;91.70
4346;BME280;2186;49.866;7.986;2022-09-13T15:20:55;99521.66;;;22.94;91.84
4346;BME280;2186;49.866;7.986;2022-09-13T15:28:50;99523.81;;;22.91;98.60
4346;BME280;2186;49.866;7.986;2022-09-13T15:31:31;99539.22;;;22.90;98.50
4346;BME280;2186;49.866;7.986;2022-09-13T15:36:37;99537.06;;;22.94;98.49
4346;BME280;2186;49.866;7.986;2022-09-13T15:41:39;99526.09;;;22.95;98.05
4346;BME280;2186;49.866;7.986;2022-09-13T15:44:07;99519.78;;;22.85;99.02
4346;BME280;2186;49.866;7.986;2022-09-13T15:46:47;99522.13;;;22.59;99.18
4346;BME280;2186;49.866;7.986;2022-09-13T15:49:16;99518.38;;;22.41;99.78
4346;BME280;2186;49.866;7.986;2022-09-13T15:51:43;99524.84;;;22.50;100.00
4346;BME280;2186;49.866;7.986;2022-09-13T15:54:11;99530.72;;;22.74;98.88
4346;BME280;2186;49.866;7.986;2022-09-13T15:56:45;99530.56;;;22.66;98.96
4346;BME280;2186;49.866;7.986;2022-09-13T15:59:16;99537.84;;;22.65;99.29
4346;BME280;2186;49.866;7.986;2022-09-13T16:01:44;99529.97;;;22.53;99.69
4346;BME280;2186;49.866;7.986;2022-09-13T16:04:11;99534.56;;;22.62;99.86
4346;BME280;2186;49.866;7.986;2022-09-13T16:06:37;99536.00;;;22.66;99.40
4346;BME280;2186;49.866;7.986;2022-09-13T16:09:15;99534.97;;;22.57;99.63
4346;BME280;2186;49.866;7.986;2022-09-13T16:11:42;99531.03;;;22.81;98.98
4346;BME280;2186;49.866;7.986;2022-09-13T16:14:08;99528.53;;;22.58;100.00
4346;BME280;2186;49.866;7.986;2022-09-13T16:16:35;99530.41;;;22.48;100.00
4346;BME280;2186;49.866;7.986;2022-09-13T16:19:01;99528.50;;;22.39;100.00
4346;BME280;2186;49.866;7.986;2022-09-13T16:21:28;99531.22;;;22.39;100.00
4346;BME280;2186;49.866;7.986;2022-09-13T16:23:54;99526.19;;;22.25;100.00
4346;BME280;2186;49.866;7.986;2022-09-13T16:26:21;99520.75;;;22.25;100.00
4346;BME280;2186;49.866;7.986;2022-09-13T16:28:48;99525.63;;;22.31;100.00
4346;BME280;2186;49.866;7.986;2022-09-13T16:31:14;99523.31;;;22.26;100.00
4346;BME280;2186;49.866;7.986;2022-09-13T16:33:41;99521.47;;;22.27;100.00
4346;BME280;2186;49.866;7.986;2022-09-13T16:36:10;99529.31;;;22.30;100.00
4346;BME280;2186;49.866;7.986;2022-09-13T16:38:37;99522.34;;;22.27;100.00
4346;BME280;2186;49.866;7.986;2022-09-13T16:41:04;99528.31;;;22.31;100.00
4346;BME280;2186;49.866;7.986;2022-09-13T16:43:31;99531.88;;;22.22;100.00
4346;BME280;2186;49.866;7.986;2022-09-13T16:46:03;99523.28;;;22.16;100.00
4346;BME280;2186;49.866;7.986;2022-09-13T16:48:30;99534.97;;;22.17;100.00
4346;BME280;2186;49.866;7.986;2022-09-13T16:51:08;99518.69;;;22.07;100.00
4346;BME280;2186;49.866;7.986;2022-09-13T16:53:37;99536.78;;;22.47;100.00
4346;BME280;2186;49.866;7.986;2022-09-13T16:56:11;99533.91;;;22.39;100.00
4346;BME280;2186;49.866;7.986;2022-09-13T16:58:41;99533.44;;;22.24;100.00
4346;BME280;2186;49.866;7.986;2022-09-13T17:01:12;99532.09;;;22.49;100.00
4346;BME280;2186;49.866;7.986;2022-09-13T17:03:39;99518.91;;;22.04;100.00
4346;BME280;2186;49.866;7.986;2022-09-13T17:06:09;99524.09;;;22.38;100.00
4346;BME280;2186;49.866;7.986;2022-09-13T17:08:37;99522.31;;;21.97;100.00
4346;BME280;2186;49.866;7.986;2022-09-13T17:11:06;99530.28;;;21.98;100.00